sensor_id;sensor_type;location;lat;lon;timestamp;P1;durP1;ratioP1;P2;durP2;ratioP2
80623;SDS011;70269;44.768;9.600;2023-05-23T00:01:01;13.13;;;8.40;;
80623;SDS011;70269;44.768;9.600;2023-05-23T00:03:27;18.00;;;9.93;;
80623;SDS011;70269;44.768;9.600;2023-05-23T00:05:53;14.23;;;9.18;;
80623;SDS011;70269;44.768;9.600;2023-05-23T00:08:20;15.13;;;9.55;;
80623;SDS011;70269;44.768;9.600;2023-05-23T00:10:45;13.45;;;9.07;;
80623;SDS011;70269;44.768;9.600;2023-05-23T00:13:11;13.23;;;9.45;;
80623;SDS011;70269;44.768;9.600;2023-05-23T00:15:37;15.93;;;8.80;;
80623;SDS011;70269;44.768;9.600;2023-05-23T00:20:33;13.05;;;9.45;;
80623;SDS011;70269;44.768;9.600;2023-05-23T00:23:09;12.63;;;8.60;;
80623;SDS011;70269;44.768;9.600;2023-05-23T00:25:42;12.18;;;8.43;;
80623;SDS011;70269;44.768;9.600;2023-05-23T00:28:12;14.82;;;9.35;;
80623;SDS011;70269;44.768;9.600;2023-05-23T00:30:38;13.30;;;9.23;;
80623;SDS011;70269;44.768;9.600;2023-05-23T00:33:04;14.00;;;9.15;;
80623;SDS011;70269;44.768;9.600;2023-05-23T00:35:30;12.52;;;8.85;;
80623;SDS011;70269;44.768;9.600;2023-05-23T00:37:56;12.52;;;8.75;;
80623;SDS011;70269;44.768;9.600;2023-05-23T00:40:21;15.38;;;9.40;;
80623;SDS011;70269;44.768;9.600;2023-05-23T00:42:47;14.18;;;9.65;;
80623;SDS011;70269;44.768;9.600;2023-05-23T00:45:13;13.18;;;8.80;;
80623;SDS011;70269;44.768;9.600;2023-05-23T00:47:40;15.63;;;10.02;;
80623;SDS011;70269;44.768;9.600;2023-05-23T00:50:15;16.05;;;9.88;;
80623;SDS011;70269;44.768;9.600;2023-05-23T00:52:41;16.15;;;10.23;;
80623;SDS011;70269;44.768;9.600;2023-05-23T00:55:08;14.95;;;9.43;;
80623;SDS011;70269;44.768;9.600;2023-05-23T00:57:34;14.93;;;9.40;;
80623;SDS011;70269;44.768;9.600;2023-05-23T01:00:05;16.40;;;10.27;;
80623;SDS011;70269;44.768;9.600;2023-05-23T01:02:33;14.65;;;10.75;;
80623;SDS011;70269;44.768;9.600;2023-05-23T01:05:00;12.60;;;9.65;;
80623;SDS011;70269;44.768;9.600;2023-05-23T01:07:26;14.27;;;8.88;;
80623;SDS011;70269;44.768;9.600;2023-05-23T01:09:52;15.13;;;9.23;;
80623;SDS011;70269;44.768;9.600;2023-05-23T01:15:05;12.45;;;8.98;;
80623;SDS011;70269;44.768;9.600;2023-05-23T01:25:43;14.35;;;9.55;;
80623;SDS011;70269;44.768;9.600;2023-05-23T01:28:25;16.92;;;9.63;;
80623;SDS011;70269;44.768;9.600;2023-05-23T01:30:54;14.60;;;9.27;;
80623;SDS011;70269;44.768;9.600;2023-05-23T01:33:22;14.20;;;9.50;;
80623;SDS011;70269;44.768;9.600;2023-05-23T01:35:49;15.57;;;9.40;;
80623;SDS011;70269;44.768;9.600;2023-05-23T01:38:16;15.90;;;10.20;;
80623;SDS011;70269;44.768;9.600;2023-05-23T01:40:43;16.65;;;9.55;;
80623;SDS011;70269;44.768;9.600;2023-05-23T01:43:08;15.85;;;9.82;;
80623;SDS011;70269;44.768;9.600;2023-05-23T01:45:34;14.93;;;9.77;;
80623;SDS011;70269;44.768;9.600;2023-05-23T01:48:01;17.98;;;10.30;;
80623;SDS011;70269;44.768;9.600;2023-05-23T01:50:27;12.85;;;9.20;;
80623;SDS011;70269;44.768;9.600;2023-05-23T01:52:54;13.50;;;9.77;;
80623;SDS011;70269;44.768;9.600;2023-05-23T01:55:21;15.20;;;10.20;;
80623;SDS011;70269;44.768;9.600;2023-05-23T01:57:50;13.93;;;9.50;;
80623;SDS011;70269;44.768;9.600;2023-05-23T02:00:18;20.85;;;9.77;;
80623;SDS011;70269;44.768;9.600;2023-05-23T02:02:45;14.40;;;10.23;;
80623;SDS011;70269;44.768;9.600;2023-05-23T02:05:11;14.82;;;10.23;;
80623;SDS011;70269;44.768;9.600;2023-05-23T02:07:37;13.80;;;9.02;;
80623;SDS011;70269;44.768;9.600;2023-05-23T02:10:03;15.90;;;10.88;;
80623;SDS011;70269;44.768;9.600;2023-05-23T02:12:32;14.30;;;10.18;;
80623;SDS011;70269;44.768;9.600;2023-05-23T02:14:58;14.82;;;9.82;;
80623;SDS011;70269;44.768;9.600;2023-05-23T02:17:24;17.33;;;11.55;;
80623;SDS011;70269;44.768;9.600;2023-05-23T02:19:50;17.90;;;10.65;;
80623;SDS011;70269;44.768;9.600;2023-05-23T02:22:16;17.73;;;10.68;;
80623;SDS011;70269;44.768;9.600;2023-05-23T02:24:42;16.35;;;10.68;;
80623;SDS011;70269;44.768;9.600;2023-05-23T02:27:07;16.80;;;9.80;;
80623;SDS011;70269;44.768;9.600;2023-05-23T02:29:33;14.75;;;10.20;;
80623;SDS011;70269;44.768;9.600;2023-05-23T02:31:59;13.93;;;9.70;;
80623;SDS011;70269;44.768;9.600;2023-05-23T02:34:24;14.93;;;10.10;;
80623;SDS011;70269;44.768;9.600;2023-05-23T02:36:50;15.60;;;9.98;;
80623;SDS011;70269;44.768;9.600;2023-05-23T02:39:16;15.20;;;9.80;;
80623;SDS011;70269;44.768;9.600;2023-05-23T02:41:44;16.48;;;10.13;;
80623;SDS011;70269;44.768;9.600;2023-05-23T02:44:09;15.88;;;9.90;;
80623;SDS011;70269;44.768;9.600;2023-05-23T02:46:35;17.50;;;10.50;;
80623;SDS011;70269;44.768;9.600;2023-05-23T02:49:02;16.70;;;10.02;;
80623;SDS011;70269;44.768;9.600;2023-05-23T02:51:27;15.90;;;10.40;;
80623;SDS011;70269;44.768;9.600;2023-05-23T02:53:53;17.48;;;11.48;;
80623;SDS011;70269;44.768;9.600;2023-05-23T02:56:19;14.35;;;9.18;;
80623;SDS011;70269;44.768;9.600;2023-05-23T02:58:46;14.75;;;10.23;;
80623;SDS011;70269;44.768;9.600;2023-05-23T03:01:12;18.83;;;10.65;;
80623;SDS011;70269;44.768;9.600;2023-05-23T03:03:37;14.85;;;9.85;;
80623;SDS011;70269;44.768;9.600;2023-05-23T03:06:04;15.38;;;10.95;;
80623;SDS011;70269;44.768;9.600;2023-05-23T03:08:30;15.30;;;10.18;;
80623;SDS011;70269;44.768;9.600;2023-05-23T03:10:56;16.52;;;11.15;;
80623;SDS011;70269;44.768;9.600;2023-05-23T03:13:22;14.70;;;11.25;;
80623;SDS011;70269;44.768;9.600;2023-05-23T03:15:48;15.70;;;11.05;;
80623;SDS011;70269;44.768;9.600;2023-05-23T03:18:13;16.67;;;10.80;;
80623;SDS011;70269;44.768;9.600;2023-05-23T03:20:39;15.38;;;10.13;;
80623;SDS011;70269;44.768;9.600;2023-05-23T03:23:04;17.17;;;10.95;;
80623;SDS011;70269;44.768;9.600;2023-05-23T03:25:30;17.50;;;10.73;;
80623;SDS011;70269;44.768;9.600;2023-05-23T03:27:55;18.92;;;12.25;;
80623;SDS011;70269;44.768;9.600;2023-05-23T03:30:21;17.55;;;10.50;;
80623;SDS011;70269;44.768;9.600;2023-05-23T03:32:47;14.60;;;9.85;;
80623;SDS011;70269;44.768;9.600;2023-05-23T03:35:14;17.88;;;10.80;;
80623;SDS011;70269;44.768;9.600;2023-05-23T03:37:39;15.88;;;10.60;;
80623;SDS011;70269;44.768;9.600;2023-05-23T03:40:05;15.38;;;11.18;;
80623;SDS011;70269;44.768;9.600;2023-05-23T03:42:31;18.15;;;11.15;;
80623;SDS011;70269;44.768;9.600;2023-05-23T03:44:57;16.48;;;10.98;;
80623;SDS011;70269;44.768;9.600;2023-05-23T03:47:23;18.33;;;11.05;;
80623;SDS011;70269;44.768;9.600;2023-05-23T03:49:49;17.23;;;11.38;;
80623;SDS011;70269;44.768;9.600;2023-05-23T03:52:15;18.90;;;10.75;;
80623;SDS011;70269;44.768;9.600;2023-05-23T03:54:42;16.50;;;11.18;;
80623;SDS011;70269;44.768;9.600;2023-05-23T03:57:07;20.15;;;12.05;;
80623;SDS011;70269;44.768;9.600;2023-05-23T03:59:34;15.07;;;11.30;;
80623;SDS011;70269;44.768;9.600;2023-05-23T04:02:01;17.00;;;11.05;;
80623;SDS011;70269;44.768;9.600;2023-05-23T04:04:26;15.60;;;11.43;;
80623;SDS011;70269;44.768;9.600;2023-05-23T04:06:53;16.08;;;10.52;;
80623;SDS011;70269;44.768;9.600;2023-05-23T04:09:19;20.45;;;11.48;;
80623;SDS011;70269;44.768;9.600;2023-05-23T04:11:46;17.67;;;10.75;;
80623;SDS011;70269;44.768;9.600;2023-05-23T04:14:12;16.63;;;11.48;;
80623;SDS011;70269;44.768;9.600;2023-05-23T04:16:38;18.23;;;11.30;;
80623;SDS011;70269;44.768;9.600;2023-05-23T04:19:06;16.60;;;11.18;;
80623;SDS011;70269;44.768;9.600;2023-05-23T04:21:33;15.63;;;10.60;;
80623;SDS011;70269;44.768;9.600;2023-05-23T04:24:04;14.55;;;10.82;;
80623;SDS011;70269;44.768;9.600;2023-05-23T04:26:30;17.58;;;11.85;;
80623;SDS011;70269;44.768;9.600;2023-05-23T04:28:57;16.20;;;9.32;;
80623;SDS011;70269;44.768;9.600;2023-05-23T04:31:23;17.88;;;10.40;;
80623;SDS011;70269;44.768;9.600;2023-05-23T04:33:50;13.55;;;9.43;;
80623;SDS011;70269;44.768;9.600;2023-05-23T04:36:17;18.95;;;10.55;;
80623;SDS011;70269;44.768;9.600;2023-05-23T04:38:47;14.85;;;10.32;;
80623;SDS011;70269;44.768;9.600;2023-05-23T04:41:12;13.82;;;9.13;;
80623;SDS011;70269;44.768;9.600;2023-05-23T04:43:58;18.50;;;8.93;;
80623;SDS011;70269;44.768;9.600;2023-05-23T04:46:29;15.02;;;9.13;;
80623;SDS011;70269;44.768;9.600;2023-05-23T04:49:26;13.75;;;9.13;;
80623;SDS011;70269;44.768;9.600;2023-05-23T04:51:53;14.63;;;9.02;;
80623;SDS011;70269;44.768;9.600;2023-05-23T04:54:30;11.60;;;8.02;;
80623;SDS011;70269;44.768;9.600;2023-05-23T04:56:57;13.18;;;8.95;;
80623;SDS011;70269;44.768;9.600;2023-05-23T04:59:24;12.77;;;9.77;;
80623;SDS011;70269;44.768;9.600;2023-05-23T05:01:50;14.35;;;9.35;;
80623;SDS011;70269;44.768;9.600;2023-05-23T05:04:17;13.18;;;9.10;;
80623;SDS011;70269;44.768;9.600;2023-05-23T05:06:43;11.02;;;8.18;;
80623;SDS011;70269;44.768;9.600;2023-05-23T05:09:09;11.82;;;8.23;;
80623;SDS011;70269;44.768;9.600;2023-05-23T05:11:34;10.73;;;7.97;;
80623;SDS011;70269;44.768;9.600;2023-05-23T05:14:01;11.00;;;8.00;;
80623;SDS011;70269;44.768;9.600;2023-05-23T05:16:26;13.15;;;8.43;;
80623;SDS011;70269;44.768;9.600;2023-05-23T05:18:52;11.65;;;7.32;;
80623;SDS011;70269;44.768;9.600;2023-05-23T05:21:18;13.02;;;8.88;;
80623;SDS011;70269;44.768;9.600;2023-05-23T05:23:44;12.73;;;8.52;;
80623;SDS011;70269;44.768;9.600;2023-05-23T05:26:12;12.80;;;8.25;;
80623;SDS011;70269;44.768;9.600;2023-05-23T05:28:38;13.13;;;9.27;;
80623;SDS011;70269;44.768;9.600;2023-05-23T05:31:03;12.85;;;8.80;;
80623;SDS011;70269;44.768;9.600;2023-05-23T05:33:32;13.00;;;8.88;;
80623;SDS011;70269;44.768;9.600;2023-05-23T05:36:11;11.85;;;8.40;;
80623;SDS011;70269;44.768;9.600;2023-05-23T05:38:38;13.02;;;8.43;;
80623;SDS011;70269;44.768;9.600;2023-05-23T05:41:04;10.60;;;7.80;;
80623;SDS011;70269;44.768;9.600;2023-05-23T05:43:35;10.57;;;8.35;;
80623;SDS011;70269;44.768;9.600;2023-05-23T05:46:00;10.65;;;8.00;;
80623;SDS011;70269;44.768;9.600;2023-05-23T05:48:27;12.50;;;8.63;;
80623;SDS011;70269;44.768;9.600;2023-05-23T05:50:54;11.35;;;8.15;;
80623;SDS011;70269;44.768;9.600;2023-05-23T05:53:20;10.88;;;7.78;;
80623;SDS011;70269;44.768;9.600;2023-05-23T05:55:46;10.93;;;8.48;;
80623;SDS011;70269;44.768;9.600;2023-05-23T05:58:12;11.40;;;8.13;;
80623;SDS011;70269;44.768;9.600;2023-05-23T06:00:49;10.60;;;7.65;;
80623;SDS011;70269;44.768;9.600;2023-05-23T06:03:14;10.60;;;8.15;;
80623;SDS011;70269;44.768;9.600;2023-05-23T06:05:47;14.98;;;8.80;;
80623;SDS011;70269;44.768;9.600;2023-05-23T06:08:13;12.07;;;8.05;;
80623;SDS011;70269;44.768;9.600;2023-05-23T06:10:39;12.20;;;8.60;;
80623;SDS011;70269;44.768;9.600;2023-05-23T06:13:05;11.10;;;7.85;;
80623;SDS011;70269;44.768;9.600;2023-05-23T06:15:32;12.65;;;8.05;;
80623;SDS011;70269;44.768;9.600;2023-05-23T06:17:57;10.15;;;7.53;;
80623;SDS011;70269;44.768;9.600;2023-05-23T06:20:24;12.77;;;8.18;;
80623;SDS011;70269;44.768;9.600;2023-05-23T06:22:50;11.45;;;7.80;;
80623;SDS011;70269;44.768;9.600;2023-05-23T06:25:16;13.18;;;7.82;;
80623;SDS011;70269;44.768;9.600;2023-05-23T06:27:43;10.32;;;7.75;;
80623;SDS011;70269;44.768;9.600;2023-05-23T06:30:10;10.30;;;6.85;;
80623;SDS011;70269;44.768;9.600;2023-05-23T06:32:36;12.75;;;8.88;;
80623;SDS011;70269;44.768;9.600;2023-05-23T06:35:02;10.57;;;7.82;;
80623;SDS011;70269;44.768;9.600;2023-05-23T06:37:28;10.25;;;8.25;;
80623;SDS011;70269;44.768;9.600;2023-05-23T06:39:55;10.73;;;7.80;;
80623;SDS011;70269;44.768;9.600;2023-05-23T06:42:21;11.32;;;8.32;;
80623;SDS011;70269;44.768;9.600;2023-05-23T06:45:03;11.30;;;7.88;;
80623;SDS011;70269;44.768;9.600;2023-05-23T06:47:30;11.07;;;8.23;;
80623;SDS011;70269;44.768;9.600;2023-05-23T06:49:56;12.52;;;7.88;;
80623;SDS011;70269;44.768;9.600;2023-05-23T06:52:22;11.98;;;8.70;;
80623;SDS011;70269;44.768;9.600;2023-05-23T06:54:47;12.20;;;8.95;;
80623;SDS011;70269;44.768;9.600;2023-05-23T06:57:13;12.13;;;7.80;;
80623;SDS011;70269;44.768;9.600;2023-05-23T06:59:39;13.32;;;8.00;;
80623;SDS011;70269;44.768;9.600;2023-05-23T07:02:04;10.45;;;8.02;;
80623;SDS011;70269;44.768;9.600;2023-05-23T07:04:30;12.15;;;8.00;;
80623;SDS011;70269;44.768;9.600;2023-05-23T07:07:00;10.82;;;8.55;;
80623;SDS011;70269;44.768;9.600;2023-05-23T07:09:27;11.93;;;8.55;;
80623;SDS011;70269;44.768;9.600;2023-05-23T07:12:02;13.38;;;8.18;;
80623;SDS011;70269;44.768;9.600;2023-05-23T07:14:30;10.75;;;7.85;;
80623;SDS011;70269;44.768;9.600;2023-05-23T07:16:56;10.88;;;8.05;;
80623;SDS011;70269;44.768;9.600;2023-05-23T07:19:21;11.02;;;8.35;;
80623;SDS011;70269;44.768;9.600;2023-05-23T07:21:50;11.27;;;8.50;;
80623;SDS011;70269;44.768;9.600;2023-05-23T07:24:17;13.18;;;8.05;;
80623;SDS011;70269;44.768;9.600;2023-05-23T07:26:43;10.73;;;8.23;;
80623;SDS011;70269;44.768;9.600;2023-05-23T07:29:08;10.65;;;7.80;;
80623;SDS011;70269;44.768;9.600;2023-05-23T07:31:35;12.88;;;8.25;;
80623;SDS011;70269;44.768;9.600;2023-05-23T07:34:00;13.68;;;8.18;;
80623;SDS011;70269;44.768;9.600;2023-05-23T07:36:33;11.10;;;8.32;;
80623;SDS011;70269;44.768;9.600;2023-05-23T07:38:59;14.95;;;8.82;;
80623;SDS011;70269;44.768;9.600;2023-05-23T07:41:25;10.80;;;8.40;;
80623;SDS011;70269;44.768;9.600;2023-05-23T07:43:51;12.13;;;8.45;;
80623;SDS011;70269;44.768;9.600;2023-05-23T07:46:17;11.23;;;8.68;;
80623;SDS011;70269;44.768;9.600;2023-05-23T07:48:42;12.35;;;8.05;;
80623;SDS011;70269;44.768;9.600;2023-05-23T07:53:36;11.98;;;8.77;;
80623;SDS011;70269;44.768;9.600;2023-05-23T07:56:06;9.82;;;7.97;;
80623;SDS011;70269;44.768;9.600;2023-05-23T07:58:35;12.85;;;8.38;;
80623;SDS011;70269;44.768;9.600;2023-05-23T08:01:01;11.38;;;7.72;;
80623;SDS011;70269;44.768;9.600;2023-05-23T08:04:02;10.52;;;7.45;;
80623;SDS011;70269;44.768;9.600;2023-05-23T08:06:32;10.05;;;7.68;;
80623;SDS011;70269;44.768;9.600;2023-05-23T08:09:00;10.70;;;6.90;;
80623;SDS011;70269;44.768;9.600;2023-05-23T08:11:27;10.07;;;7.28;;
80623;SDS011;70269;44.768;9.600;2023-05-23T08:13:55;9.25;;;6.65;;
80623;SDS011;70269;44.768;9.600;2023-05-23T08:16:46;11.07;;;6.47;;
80623;SDS011;70269;44.768;9.600;2023-05-23T08:19:20;10.80;;;6.22;;
80623;SDS011;70269;44.768;9.600;2023-05-23T08:21:47;11.20;;;6.15;;
80623;SDS011;70269;44.768;9.600;2023-05-23T08:24:12;10.15;;;6.28;;
80623;SDS011;70269;44.768;9.600;2023-05-23T08:26:38;9.30;;;5.95;;
80623;SDS011;70269;44.768;9.600;2023-05-23T08:29:08;7.50;;;5.78;;
80623;SDS011;70269;44.768;9.600;2023-05-23T08:31:35;8.85;;;5.72;;
80623;SDS011;70269;44.768;9.600;2023-05-23T08:34:01;6.65;;;5.22;;
80623;SDS011;70269;44.768;9.600;2023-05-23T08:36:28;8.00;;;5.55;;
80623;SDS011;70269;44.768;9.600;2023-05-23T08:38:54;9.27;;;6.07;;
80623;SDS011;70269;44.768;9.600;2023-05-23T08:41:33;11.40;;;5.38;;
80623;SDS011;70269;44.768;9.600;2023-05-23T08:44:05;9.02;;;5.65;;
80623;SDS011;70269;44.768;9.600;2023-05-23T08:46:38;7.97;;;5.25;;
80623;SDS011;70269;44.768;9.600;2023-05-23T08:49:08;9.20;;;5.65;;
80623;SDS011;70269;44.768;9.600;2023-05-23T08:51:35;8.60;;;6.13;;
80623;SDS011;70269;44.768;9.600;2023-05-23T08:54:08;10.25;;;5.60;;
80623;SDS011;70269;44.768;9.600;2023-05-23T08:56:37;8.40;;;6.03;;
80623;SDS011;70269;44.768;9.600;2023-05-23T08:59:07;9.80;;;5.85;;
80623;SDS011;70269;44.768;9.600;2023-05-23T09:04:02;7.43;;;5.75;;
80623;SDS011;70269;44.768;9.600;2023-05-23T09:06:46;9.73;;;5.85;;
80623;SDS011;70269;44.768;9.600;2023-05-23T09:09:11;12.15;;;6.75;;
80623;SDS011;70269;44.768;9.600;2023-05-23T09:11:38;8.55;;;5.40;;
80623;SDS011;70269;44.768;9.600;2023-05-23T09:14:26;7.60;;;5.85;;
80623;SDS011;70269;44.768;9.600;2023-05-23T09:17:02;7.50;;;5.50;;
80623;SDS011;70269;44.768;9.600;2023-05-23T09:19:27;10.02;;;5.57;;
80623;SDS011;70269;44.768;9.600;2023-05-23T09:22:00;7.57;;;5.35;;
80623;SDS011;70269;44.768;9.600;2023-05-23T09:24:33;8.25;;;6.10;;
80623;SDS011;70269;44.768;9.600;2023-05-23T09:27:01;11.55;;;6.57;;
80623;SDS011;70269;44.768;9.600;2023-05-23T09:29:30;8.90;;;5.95;;
80623;SDS011;70269;44.768;9.600;2023-05-23T09:32:04;8.30;;;5.63;;
80623;SDS011;70269;44.768;9.600;2023-05-23T09:34:56;7.95;;;5.85;;
80623;SDS011;70269;44.768;9.600;2023-05-23T09:37:33;10.35;;;6.10;;
80623;SDS011;70269;44.768;9.600;2023-05-23T09:40:01;7.40;;;5.45;;
80623;SDS011;70269;44.768;9.600;2023-05-23T09:42:31;8.50;;;6.32;;
80623;SDS011;70269;44.768;9.600;2023-05-23T09:45:01;11.35;;;6.82;;
80623;SDS011;70269;44.768;9.600;2023-05-23T09:47:28;7.20;;;5.95;;
80623;SDS011;70269;44.768;9.600;2023-05-23T09:49:54;7.25;;;5.97;;
80623;SDS011;70269;44.768;9.600;2023-05-23T09:52:20;8.63;;;5.88;;
80623;SDS011;70269;44.768;9.600;2023-05-23T09:54:45;9.27;;;6.50;;
80623;SDS011;70269;44.768;9.600;2023-05-23T09:57:12;8.38;;;5.60;;
80623;SDS011;70269;44.768;9.600;2023-05-23T09:59:39;7.03;;;5.28;;
80623;SDS011;70269;44.768;9.600;2023-05-23T10:02:10;9.30;;;5.93;;
80623;SDS011;70269;44.768;9.600;2023-05-23T10:04:38;9.07;;;6.15;;
80623;SDS011;70269;44.768;9.600;2023-05-23T10:07:14;10.05;;;7.18;;
80623;SDS011;70269;44.768;9.600;2023-05-23T10:09:46;9.32;;;6.07;;
80623;SDS011;70269;44.768;9.600;2023-05-23T10:15:04;8.60;;;5.68;;
80623;SDS011;70269;44.768;9.600;2023-05-23T10:17:33;8.73;;;5.85;;
80623;SDS011;70269;44.768;9.600;2023-05-23T10:20:10;7.28;;;4.90;;
80623;SDS011;70269;44.768;9.600;2023-05-23T10:22:36;8.65;;;5.50;;
80623;SDS011;70269;44.768;9.600;2023-05-23T10:25:03;11.02;;;5.47;;
80623;SDS011;70269;44.768;9.600;2023-05-23T10:27:30;6.85;;;4.47;;
80623;SDS011;70269;44.768;9.600;2023-05-23T10:29:58;6.60;;;4.40;;
80623;SDS011;70269;44.768;9.600;2023-05-23T10:32:25;7.20;;;4.57;;
80623;SDS011;70269;44.768;9.600;2023-05-23T10:37:44;7.07;;;5.20;;
80623;SDS011;70269;44.768;9.600;2023-05-23T10:40:26;7.05;;;4.70;;
80623;SDS011;70269;44.768;9.600;2023-05-23T10:43:03;8.48;;;5.18;;
80623;SDS011;70269;44.768;9.600;2023-05-23T10:45:38;7.55;;;4.57;;
80623;SDS011;70269;44.768;9.600;2023-05-23T10:51:00;7.55;;;6.18;;
80623;SDS011;70269;44.768;9.600;2023-05-23T10:53:28;7.85;;;5.68;;
80623;SDS011;70269;44.768;9.600;2023-05-23T10:55:55;7.13;;;5.60;;
80623;SDS011;70269;44.768;9.600;2023-05-23T10:58:21;8.60;;;4.60;;
80623;SDS011;70269;44.768;9.600;2023-05-23T11:01:00;10.27;;;5.25;;
80623;SDS011;70269;44.768;9.600;2023-05-23T11:09:08;8.07;;;5.43;;
80623;SDS011;70269;44.768;9.600;2023-05-23T11:16:58;10.40;;;5.43;;
80623;SDS011;70269;44.768;9.600;2023-05-23T11:19:25;7.43;;;5.10;;
80623;SDS011;70269;44.768;9.600;2023-05-23T11:22:01;8.30;;;4.68;;
80623;SDS011;70269;44.768;9.600;2023-05-23T11:24:48;8.15;;;5.10;;
80623;SDS011;70269;44.768;9.600;2023-05-23T11:27:16;8.45;;;5.35;;
80623;SDS011;70269;44.768;9.600;2023-05-23T11:29:45;7.43;;;4.72;;
80623;SDS011;70269;44.768;9.600;2023-05-23T11:32:22;9.98;;;6.25;;
80623;SDS011;70269;44.768;9.600;2023-05-23T11:34:48;12.02;;;5.90;;
80623;SDS011;70269;44.768;9.600;2023-05-23T11:37:13;8.02;;;5.85;;
80623;SDS011;70269;44.768;9.600;2023-05-23T11:39:39;6.63;;;5.30;;
80623;SDS011;70269;44.768;9.600;2023-05-23T11:42:05;8.63;;;5.38;;
80623;SDS011;70269;44.768;9.600;2023-05-23T11:44:30;9.25;;;5.13;;
80623;SDS011;70269;44.768;9.600;2023-05-23T11:47:03;8.70;;;5.28;;
80623;SDS011;70269;44.768;9.600;2023-05-23T11:51:57;8.63;;;5.53;;
80623;SDS011;70269;44.768;9.600;2023-05-23T11:54:24;7.53;;;4.65;;
80623;SDS011;70269;44.768;9.600;2023-05-23T11:56:51;8.18;;;5.40;;
80623;SDS011;70269;44.768;9.600;2023-05-23T11:59:17;7.68;;;4.93;;
80623;SDS011;70269;44.768;9.600;2023-05-23T12:01:42;7.18;;;5.45;;
80623;SDS011;70269;44.768;9.600;2023-05-23T12:04:08;8.00;;;5.45;;
80623;SDS011;70269;44.768;9.600;2023-05-23T12:06:38;8.43;;;5.55;;
80623;SDS011;70269;44.768;9.600;2023-05-23T12:09:05;9.80;;;5.82;;
80623;SDS011;70269;44.768;9.600;2023-05-23T12:11:32;9.52;;;5.78;;
80623;SDS011;70269;44.768;9.600;2023-05-23T12:13:59;7.40;;;5.10;;
80623;SDS011;70269;44.768;9.600;2023-05-23T12:16:30;8.18;;;6.13;;
80623;SDS011;70269;44.768;9.600;2023-05-23T12:18:56;9.98;;;5.15;;
80623;SDS011;70269;44.768;9.600;2023-05-23T12:21:31;7.90;;;4.93;;
80623;SDS011;70269;44.768;9.600;2023-05-23T12:24:21;9.10;;;5.78;;
80623;SDS011;70269;44.768;9.600;2023-05-23T12:29:34;9.02;;;5.70;;
80623;SDS011;70269;44.768;9.600;2023-05-23T12:32:02;8.35;;;5.35;;
80623;SDS011;70269;44.768;9.600;2023-05-23T12:34:29;8.90;;;6.07;;
80623;SDS011;70269;44.768;9.600;2023-05-23T12:36:58;7.07;;;5.47;;
80623;SDS011;70269;44.768;9.600;2023-05-23T12:39:28;7.95;;;5.55;;
80623;SDS011;70269;44.768;9.600;2023-05-23T12:41:55;8.13;;;5.93;;
80623;SDS011;70269;44.768;9.600;2023-05-23T12:44:32;6.95;;;5.68;;
80623;SDS011;70269;44.768;9.600;2023-05-23T12:46:58;8.05;;;6.10;;
80623;SDS011;70269;44.768;9.600;2023-05-23T12:49:23;7.32;;;5.38;;
80623;SDS011;70269;44.768;9.600;2023-05-23T12:51:49;9.70;;;6.10;;
80623;SDS011;70269;44.768;9.600;2023-05-23T12:54:14;8.15;;;5.18;;
80623;SDS011;70269;44.768;9.600;2023-05-23T12:56:40;8.70;;;5.05;;
80623;SDS011;70269;44.768;9.600;2023-05-23T12:59:05;7.63;;;5.97;;
80623;SDS011;70269;44.768;9.600;2023-05-23T13:01:32;8.07;;;5.38;;
80623;SDS011;70269;44.768;9.600;2023-05-23T13:03:58;6.88;;;5.38;;
80623;SDS011;70269;44.768;9.600;2023-05-23T13:06:25;8.38;;;5.40;;
80623;SDS011;70269;44.768;9.600;2023-05-23T13:08:51;7.70;;;4.97;;
80623;SDS011;70269;44.768;9.600;2023-05-23T13:11:18;7.85;;;5.13;;
80623;SDS011;70269;44.768;9.600;2023-05-23T13:16:12;8.77;;;5.95;;
80623;SDS011;70269;44.768;9.600;2023-05-23T13:18:37;9.23;;;5.40;;
80623;SDS011;70269;44.768;9.600;2023-05-23T13:21:03;8.25;;;5.97;;
80623;SDS011;70269;44.768;9.600;2023-05-23T13:23:29;7.40;;;5.95;;
80623;SDS011;70269;44.768;9.600;2023-05-23T13:25:54;9.20;;;5.95;;
80623;SDS011;70269;44.768;9.600;2023-05-23T13:28:22;11.02;;;6.47;;
80623;SDS011;70269;44.768;9.600;2023-05-23T13:30:47;8.75;;;6.00;;
80623;SDS011;70269;44.768;9.600;2023-05-23T13:33:13;7.90;;;5.80;;
80623;SDS011;70269;44.768;9.600;2023-05-23T13:35:39;9.00;;;5.22;;
80623;SDS011;70269;44.768;9.600;2023-05-23T13:38:04;7.70;;;5.82;;
80623;SDS011;70269;44.768;9.600;2023-05-23T13:40:30;10.32;;;5.80;;
80623;SDS011;70269;44.768;9.600;2023-05-23T13:42:55;9.60;;;5.60;;
80623;SDS011;70269;44.768;9.600;2023-05-23T13:45:21;8.13;;;5.63;;
80623;SDS011;70269;44.768;9.600;2023-05-23T13:47:47;8.95;;;5.75;;
80623;SDS011;70269;44.768;9.600;2023-05-23T13:50:12;8.18;;;5.38;;
80623;SDS011;70269;44.768;9.600;2023-05-23T13:52:38;9.07;;;5.85;;
80623;SDS011;70269;44.768;9.600;2023-05-23T13:55:04;9.13;;;5.70;;
80623;SDS011;70269;44.768;9.600;2023-05-23T13:57:30;7.90;;;5.68;;
80623;SDS011;70269;44.768;9.600;2023-05-23T13:59:56;8.52;;;5.82;;
80623;SDS011;70269;44.768;9.600;2023-05-23T14:02:22;8.93;;;5.70;;
80623;SDS011;70269;44.768;9.600;2023-05-23T14:04:47;8.80;;;5.82;;
80623;SDS011;70269;44.768;9.600;2023-05-23T14:07:14;7.13;;;5.25;;
80623;SDS011;70269;44.768;9.600;2023-05-23T14:09:40;7.85;;;5.80;;
80623;SDS011;70269;44.768;9.600;2023-05-23T14:12:05;7.60;;;5.63;;
80623;SDS011;70269;44.768;9.600;2023-05-23T14:14:31;8.30;;;5.25;;
80623;SDS011;70269;44.768;9.600;2023-05-23T14:16:57;8.05;;;5.38;;
80623;SDS011;70269;44.768;9.600;2023-05-23T14:19:22;8.80;;;5.57;;
80623;SDS011;70269;44.768;9.600;2023-05-23T14:21:48;8.98;;;5.70;;
80623;SDS011;70269;44.768;9.600;2023-05-23T14:24:13;11.00;;;6.60;;
80623;SDS011;70269;44.768;9.600;2023-05-23T14:26:39;7.20;;;5.50;;
80623;SDS011;70269;44.768;9.600;2023-05-23T14:29:05;9.63;;;5.78;;
80623;SDS011;70269;44.768;9.600;2023-05-23T14:31:30;9.50;;;5.97;;
80623;SDS011;70269;44.768;9.600;2023-05-23T14:33:56;6.85;;;4.68;;
80623;SDS011;70269;44.768;9.600;2023-05-23T14:36:23;7.55;;;5.95;;
80623;SDS011;70269;44.768;9.600;2023-05-23T14:38:50;8.32;;;5.68;;
80623;SDS011;70269;44.768;9.600;2023-05-23T14:41:16;8.65;;;5.10;;
80623;SDS011;70269;44.768;9.600;2023-05-23T14:43:41;8.10;;;5.95;;
80623;SDS011;70269;44.768;9.600;2023-05-23T14:46:07;7.80;;;6.05;;
80623;SDS011;70269;44.768;9.600;2023-05-23T14:48:33;7.95;;;5.60;;
80623;SDS011;70269;44.768;9.600;2023-05-23T14:50:58;7.20;;;5.05;;
80623;SDS011;70269;44.768;9.600;2023-05-23T14:53:27;7.32;;;4.82;;
80623;SDS011;70269;44.768;9.600;2023-05-23T14:55:53;6.35;;;4.85;;
80623;SDS011;70269;44.768;9.600;2023-05-23T14:58:22;7.28;;;5.07;;
80623;SDS011;70269;44.768;9.600;2023-05-23T15:00:49;8.68;;;5.70;;
80623;SDS011;70269;44.768;9.600;2023-05-23T15:03:16;7.13;;;5.50;;
80623;SDS011;70269;44.768;9.600;2023-05-23T15:05:41;8.40;;;5.70;;
80623;SDS011;70269;44.768;9.600;2023-05-23T15:08:07;8.52;;;5.80;;
80623;SDS011;70269;44.768;9.600;2023-05-23T15:10:32;7.13;;;5.18;;
80623;SDS011;70269;44.768;9.600;2023-05-23T15:12:58;8.82;;;5.57;;
80623;SDS011;70269;44.768;9.600;2023-05-23T15:15:23;7.18;;;5.70;;
80623;SDS011;70269;44.768;9.600;2023-05-23T15:17:51;8.25;;;5.57;;
80623;SDS011;70269;44.768;9.600;2023-05-23T15:20:16;8.52;;;5.28;;
80623;SDS011;70269;44.768;9.600;2023-05-23T15:22:42;8.77;;;5.47;;
80623;SDS011;70269;44.768;9.600;2023-05-23T15:25:07;8.90;;;5.43;;
80623;SDS011;70269;44.768;9.600;2023-05-23T15:27:34;11.48;;;4.30;;